Disclaimer

Please do not use the information listed here in-flight or in-navigation, as they are not provided to us by the airports but are provided by volunteers, so they might be outdated.

Search


Regions


Airport information page

Radio informations:
Tower (TWR) - 120.675 MHz
OPS - 132.65 MHz
DEP - 129.125 MHz
Automatic Terminal Information Service (ATIS) - 300.35 MHz
Approach (APP) - 126.45 MHz

Airport informations:
Latitude: 51° 33' 10.80" N
Longitude: 000° 25' 05.40" W
Elevation: 124 feet - 38 meters
Operating hours: Remarks
Operating agency: Military
Timezone: UTC 0(+1DT) - Last Sunday in March to last Sunday in October
Fuel: N/A

Runway information:
07/25 - 5545 x 151 feet< - >1690 x 46 meters

Recent METARs:
EGWU 151150Z 14016KT 9999 -RA SCT038 BKN050 03/M01 Q1012 BLU BECMG 7000 RA BKN012 GRN
EGWU 151250Z 14018KT 9999 -RA FEW018 BKN050 03/00 Q1010 BECMG 7000 RA
EGWU 151331Z 14017KT 8000 -RA SCT014 BKN040 03/01 Q1009 GRN BECMG 7000 RA GRN

Airport on the map: